createdAt,value
2022-08-22T00:00:43.985Z,14.27
2022-08-22T00:01:42.995Z,14.19
2022-08-22T00:02:42.245Z,18.24
2022-08-22T00:02:45.054Z,18.67
2022-08-22T00:03:07.953Z,18.67
2022-08-22T00:03:10.470Z,16.05
2022-08-22T00:03:15.396Z,14.26
2022-08-22T00:03:15.934Z,14.53
2022-08-22T00:03:16.022Z,14.52
2022-08-22T00:03:44.072Z,14.08
2022-08-22T00:04:42.976Z,14.15
2022-08-22T00:05:42.977Z,14.15
2022-08-22T00:06:42.966Z,14.03
2022-08-22T00:07:42.946Z,14.05
2022-08-22T00:08:42.952Z,14.01
2022-08-22T00:09:43.024Z,13.98
2022-08-22T00:10:42.927Z,14.00
2022-08-22T00:11:42.932Z,13.88
2022-08-22T00:12:42.913Z,13.90
2022-08-22T00:13:42.950Z,13.83
2022-08-22T00:14:42.930Z,13.85
2022-08-22T00:15:44.398Z,13.93
2022-08-22T00:16:43.901Z,13.93
2022-08-22T00:17:42.909Z,13.86
2022-08-22T00:18:42.884Z,13.80
2022-08-22T00:19:42.895Z,13.86
2022-08-22T00:20:43.049Z,13.86
2022-08-22T00:21:42.885Z,13.79
2022-08-22T00:22:42.876Z,13.93
2022-08-22T00:23:42.851Z,13.88
2022-08-22T00:24:42.864Z,13.78
2022-08-22T00:25:42.979Z,13.80
2022-08-22T00:26:45.414Z,13.75
2022-08-22T00:27:45.186Z,13.76
2022-08-22T00:28:42.838Z,13.63
2022-08-22T00:29:43.562Z,13.57
2022-08-22T00:30:42.863Z,13.63
2022-08-22T00:31:42.924Z,13.65
2022-08-22T00:32:42.810Z,13.63
2022-08-22T00:33:42.814Z,13.64
2022-08-22T00:34:42.810Z,13.58
2022-08-22T00:35:45.093Z,13.51
2022-08-22T00:36:43.826Z,13.51
2022-08-22T00:37:42.787Z,13.54
2022-08-22T00:38:42.821Z,13.54
2022-08-22T00:39:42.799Z,13.51
2022-08-22T00:40:42.785Z,13.38
2022-08-22T00:41:42.770Z,13.40
2022-08-22T00:42:42.768Z,13.39
2022-08-22T00:43:43.662Z,13.43
2022-08-22T00:44:42.757Z,13.26
2022-08-22T00:45:42.745Z,13.32
2022-08-22T00:46:42.756Z,13.38
2022-08-22T00:47:42.746Z,13.39
2022-08-22T00:48:42.743Z,13.42
2022-08-22T00:49:42.715Z,13.42
2022-08-22T00:50:42.703Z,13.39
2022-08-22T00:51:42.716Z,13.42
2022-08-22T00:52:42.729Z,13.43
2022-08-22T00:53:42.695Z,13.40
2022-08-22T00:54:42.686Z,13.42
2022-08-22T00:55:42.679Z,13.32
2022-08-22T00:56:45.966Z,13.27
2022-08-22T00:57:42.687Z,13.32
2022-08-22T00:58:42.679Z,13.30
2022-08-22T00:59:42.673Z,13.36
2022-08-22T01:00:42.681Z,13.32
2022-08-22T01:01:42.671Z,13.27
2022-08-22T01:02:42.650Z,13.30
2022-08-22T01:03:42.648Z,13.23
2022-08-22T01:04:42.641Z,13.20
2022-08-22T01:05:42.620Z,13.32
2022-08-22T01:06:42.651Z,13.36
2022-08-22T01:07:42.842Z,13.30
2022-08-22T01:08:42.618Z,13.29
2022-08-22T01:09:42.600Z,13.30
2022-08-22T01:10:42.616Z,13.17
2022-08-22T01:11:42.619Z,13.17
2022-08-22T01:12:42.590Z,13.24
2022-08-22T01:13:42.602Z,13.14
2022-08-22T01:14:42.703Z,13.21
2022-08-22T01:15:42.586Z,13.24
2022-08-22T01:16:42.579Z,13.19
2022-08-22T01:17:42.685Z,13.21
2022-08-22T01:18:42.538Z,13.27
2022-08-22T01:19:43.565Z,13.17
2022-08-22T01:20:42.569Z,13.20
2022-08-22T01:21:42.538Z,13.29
2022-08-22T01:22:42.558Z,13.20
2022-08-22T01:23:42.593Z,13.04
2022-08-22T01:24:42.533Z,13.09
2022-08-22T01:25:42.511Z,13.13
2022-08-22T01:26:44.797Z,13.13
2022-08-22T01:27:42.516Z,13.06
2022-08-22T01:28:42.626Z,13.05
2022-08-22T01:29:42.512Z,13.05
2022-08-22T01:30:42.502Z,13.13
2022-08-22T01:31:42.519Z,13.14
2022-08-22T01:32:42.469Z,13.06
2022-08-22T01:33:42.485Z,13.04
2022-08-22T01:34:42.603Z,13.11
2022-08-22T01:35:42.482Z,13.11
2022-08-22T01:36:42.459Z,13.14
2022-08-22T01:37:43.643Z,13.11
2022-08-22T01:38:42.461Z,13.16
2022-08-22T01:39:42.497Z,13.09
2022-08-22T01:40:53.881Z,13.08
2022-08-22T01:41:43.446Z,13.13
2022-08-22T01:42:42.437Z,13.08
2022-08-22T01:43:59.329Z,13.01
2022-08-22T01:44:43.447Z,13.01
2022-08-22T01:45:43.431Z,12.96
2022-08-22T01:46:42.429Z,12.98
2022-08-22T01:47:42.413Z,12.98
2022-08-22T01:48:42.398Z,13.02
2022-08-22T01:49:42.397Z,12.98
2022-08-22T01:50:42.434Z,13.05
2022-08-22T01:51:42.381Z,13.02
2022-08-22T01:52:42.370Z,13.08
2022-08-22T01:53:42.382Z,13.05
2022-08-22T01:54:42.386Z,13.06
2022-08-22T01:55:42.479Z,13.05
2022-08-22T01:56:42.361Z,13.04
2022-08-22T01:57:42.369Z,13.02
2022-08-22T01:58:42.337Z,13.02
2022-08-22T01:59:42.909Z,12.96
2022-08-22T02:00:42.356Z,12.99
2022-08-22T02:01:42.348Z,12.96
2022-08-22T02:02:42.318Z,12.90
2022-08-22T02:03:42.325Z,12.91
2022-08-22T02:04:42.326Z,12.95
2022-08-22T02:05:42.322Z,12.86
2022-08-22T02:06:42.441Z,12.88
2022-08-22T02:07:42.291Z,12.87
2022-08-22T02:08:42.280Z,12.88
2022-08-22T02:09:42.288Z,12.77
2022-08-22T02:10:42.289Z,12.77
2022-08-22T02:11:42.282Z,12.68
2022-08-22T02:12:42.280Z,12.72
2022-08-22T02:13:42.275Z,12.73
2022-08-22T02:14:42.258Z,12.71
2022-08-22T02:15:44.012Z,12.71
2022-08-22T02:16:42.251Z,12.73
2022-08-22T02:17:42.278Z,12.69
2022-08-22T02:18:42.229Z,12.69
2022-08-22T02:19:42.227Z,12.68
2022-08-22T02:20:42.230Z,12.62
2022-08-22T02:21:42.238Z,12.63
2022-08-22T02:22:44.577Z,12.51
2022-08-22T02:23:42.315Z,12.48
2022-08-22T02:24:42.204Z,12.54
2022-08-22T02:25:42.206Z,12.58
2022-08-22T02:26:42.182Z,12.61
2022-08-22T02:27:42.179Z,12.62
2022-08-22T02:28:56.582Z,12.61
2022-08-22T02:29:43.158Z,12.65
2022-08-22T02:30:42.181Z,12.55
2022-08-22T02:31:42.176Z,12.61
2022-08-22T02:32:42.155Z,12.59
2022-08-22T02:33:42.153Z,12.47
2022-08-22T02:34:42.167Z,12.58
2022-08-22T02:35:42.134Z,12.51
2022-08-22T02:36:42.142Z,12.47
2022-08-22T02:37:42.112Z,12.38
2022-08-22T02:38:42.104Z,12.41
2022-08-22T02:39:42.234Z,12.43
2022-08-22T02:40:42.086Z,12.38
2022-08-22T02:41:42.112Z,12.41
2022-08-22T02:42:42.105Z,12.33
2022-08-22T02:43:42.084Z,12.35
2022-08-22T02:44:42.077Z,12.40
2022-08-22T02:45:42.194Z,12.25
2022-08-22T02:46:42.076Z,12.35
2022-08-22T02:47:42.067Z,12.23
2022-08-22T02:48:42.068Z,12.21
2022-08-22T02:49:43.928Z,12.25
2022-08-22T02:50:42.074Z,12.25
2022-08-22T02:51:42.048Z,12.23
2022-08-22T02:52:42.038Z,12.22
2022-08-22T02:53:42.034Z,12.22
2022-08-22T02:54:42.027Z,12.22
2022-08-22T02:55:42.030Z,12.13
2022-08-22T02:56:42.130Z,12.17
2022-08-22T02:57:42.011Z,12.22
2022-08-22T02:58:42.011Z,12.14
2022-08-22T02:59:41.986Z,12.14
2022-08-22T03:00:42.018Z,12.15
2022-08-22T03:01:42.040Z,12.15
2022-08-22T03:02:41.983Z,12.05
2022-08-22T03:03:41.965Z,12.10
2022-08-22T03:04:41.957Z,12.10
2022-08-22T03:05:41.952Z,12.00
2022-08-22T03:06:41.955Z,11.97
2022-08-22T03:07:41.976Z,12.07
2022-08-22T03:08:42.927Z,12.08
2022-08-22T03:09:41.944Z,11.99
2022-08-22T03:10:41.939Z,11.99
2022-08-22T03:11:41.938Z,12.13
2022-08-22T03:12:41.954Z,11.93
2022-08-22T03:13:41.910Z,11.97
2022-08-22T03:14:41.910Z,11.97
2022-08-22T03:15:48.451Z,12.03
2022-08-22T03:16:42.902Z,11.96
2022-08-22T03:17:41.904Z,12.00
2022-08-22T03:18:42.006Z,11.99
2022-08-22T03:19:41.917Z,12.05
2022-08-22T03:20:41.877Z,11.91
2022-08-22T03:21:41.880Z,11.93
2022-08-22T03:22:41.868Z,11.93
2022-08-22T03:23:41.985Z,11.96
2022-08-22T03:24:41.845Z,11.89
2022-08-22T03:25:41.862Z,11.89
2022-08-22T03:26:41.852Z,11.79
2022-08-22T03:27:41.842Z,11.76
2022-08-22T03:28:59.157Z,11.80
2022-08-22T03:29:42.870Z,11.76
2022-08-22T03:30:42.837Z,11.82
2022-08-22T03:31:41.822Z,11.91
2022-08-22T03:32:41.815Z,11.71
2022-08-22T03:33:41.804Z,11.77
2022-08-22T03:34:41.899Z,11.73
2022-08-22T03:35:41.799Z,11.69
2022-08-22T03:36:41.800Z,11.67
2022-08-22T03:37:41.772Z,11.70
2022-08-22T03:38:41.789Z,11.79
2022-08-22T03:39:41.795Z,11.73
2022-08-22T03:40:41.908Z,11.73
2022-08-22T03:41:41.766Z,11.76
2022-08-22T03:42:41.764Z,11.69
2022-08-22T03:43:41.754Z,11.71
2022-08-22T03:44:41.756Z,11.66
2022-08-22T03:45:41.798Z,11.71
2022-08-22T03:46:41.752Z,11.76
2022-08-22T03:47:41.721Z,11.67
2022-08-22T03:48:41.724Z,11.69
2022-08-22T03:49:41.723Z,11.76
2022-08-22T03:50:41.716Z,11.71
2022-08-22T03:51:41.816Z,11.71
2022-08-22T03:52:41.698Z,11.66
2022-08-22T03:53:41.692Z,11.54
2022-08-22T03:54:41.705Z,11.71
2022-08-22T03:55:41.698Z,11.52
2022-08-22T03:56:41.697Z,11.62
2022-08-22T03:57:41.669Z,11.61
2022-08-22T03:58:41.685Z,11.59
2022-08-22T03:59:42.589Z,11.52
2022-08-22T04:00:41.701Z,11.51
2022-08-22T04:02:33.369Z,11.55
2022-08-22T04:02:44.263Z,11.61
2022-08-22T04:03:41.647Z,11.56
2022-08-22T04:04:41.639Z,11.61
2022-08-22T04:05:41.646Z,11.61
2022-08-22T04:06:41.619Z,11.56
2022-08-22T04:07:41.903Z,11.59
2022-08-22T04:08:43.833Z,11.64
2022-08-22T04:09:41.614Z,11.61
2022-08-22T04:10:41.606Z,11.64
2022-08-22T04:11:41.598Z,11.66
2022-08-22T04:12:41.625Z,11.56
2022-08-22T04:13:41.586Z,11.66
2022-08-22T04:14:41.575Z,11.66
2022-08-22T04:15:41.578Z,11.56
2022-08-22T04:16:41.563Z,11.66
2022-08-22T04:17:41.575Z,11.55
2022-08-22T04:18:41.586Z,11.61
2022-08-22T04:19:41.546Z,11.62
2022-08-22T04:20:41.541Z,11.61
2022-08-22T04:21:41.544Z,11.59
2022-08-22T04:22:41.605Z,11.69
2022-08-22T04:23:41.583Z,11.71
2022-08-22T04:24:41.542Z,11.73
2022-08-22T04:25:41.523Z,11.69
2022-08-22T04:26:41.524Z,11.66
2022-08-22T04:27:41.497Z,11.64
2022-08-22T04:28:41.525Z,11.88
2022-08-22T04:29:41.520Z,11.67
2022-08-22T04:30:41.500Z,11.71
2022-08-22T04:31:41.499Z,11.69
2022-08-22T04:32:41.503Z,11.74
2022-08-22T04:33:41.495Z,11.70
2022-08-22T04:34:41.510Z,11.76
2022-08-22T04:35:41.478Z,11.74
2022-08-22T04:36:41.490Z,11.64
2022-08-22T04:37:41.467Z,11.67
2022-08-22T04:38:41.463Z,11.76
2022-08-22T04:39:41.534Z,11.69
2022-08-22T04:40:41.476Z,11.66
2022-08-22T04:41:41.453Z,11.74
2022-08-22T04:42:41.434Z,11.61
2022-08-22T04:43:41.437Z,11.74
2022-08-22T04:44:41.409Z,11.64
2022-08-22T04:45:41.443Z,11.70
2022-08-22T04:46:41.427Z,11.67
2022-08-22T04:47:41.400Z,11.73
2022-08-22T04:48:41.405Z,11.64
2022-08-22T04:49:41.393Z,11.59
2022-08-22T04:50:43.323Z,11.67
2022-08-22T04:51:42.391Z,11.58
2022-08-22T04:52:41.381Z,11.70
2022-08-22T04:53:41.376Z,11.69
2022-08-22T04:54:41.382Z,11.67
2022-08-22T04:55:41.342Z,11.64
2022-08-22T04:56:41.363Z,11.66
2022-08-22T04:57:41.368Z,11.69
2022-08-22T04:58:41.338Z,11.85
2022-08-22T04:59:41.353Z,11.74
2022-08-22T05:00:41.330Z,11.74
2022-08-22T05:01:41.394Z,11.79
2022-08-22T05:02:41.328Z,11.79
2022-08-22T05:03:44.861Z,11.80
2022-08-22T05:04:41.307Z,11.77
2022-08-22T05:05:41.289Z,11.79
2022-08-22T05:06:41.308Z,11.88
2022-08-22T05:07:41.290Z,11.89
2022-08-22T05:08:41.275Z,11.97
2022-08-22T05:09:41.277Z,11.95
2022-08-22T05:10:41.276Z,11.97
2022-08-22T05:11:41.286Z,11.96
2022-08-22T05:12:41.267Z,12.04
2022-08-22T05:13:41.261Z,12.07
2022-08-22T05:14:41.244Z,12.14
2022-08-22T05:15:41.240Z,12.08
2022-08-22T05:16:41.257Z,12.08
2022-08-22T05:17:41.251Z,12.15
2022-08-22T05:18:41.230Z,12.15
2022-08-22T05:19:41.213Z,12.21
2022-08-22T05:20:41.228Z,12.17
2022-08-22T05:21:41.226Z,12.23
2022-08-22T05:22:41.224Z,12.30
2022-08-22T05:23:41.203Z,12.36
2022-08-22T05:24:41.196Z,12.36
2022-08-22T05:25:41.185Z,12.35
2022-08-22T05:26:41.201Z,12.47
2022-08-22T05:27:41.197Z,12.58
2022-08-22T05:28:41.192Z,12.59
2022-08-22T05:29:41.177Z,12.69
2022-08-22T05:30:41.155Z,12.76
2022-08-22T05:31:41.168Z,12.80
2022-08-22T05:32:41.162Z,12.77
2022-08-22T05:33:41.165Z,12.88
2022-08-22T05:34:41.146Z,12.90
2022-08-22T05:35:41.925Z,12.96
2022-08-22T05:36:41.142Z,13.05
2022-08-22T05:37:42.153Z,13.04
2022-08-22T05:38:41.133Z,13.08
2022-08-22T05:39:41.182Z,13.11
2022-08-22T05:40:41.125Z,13.21
2022-08-22T05:41:41.113Z,13.13
2022-08-22T05:42:41.237Z,13.24
2022-08-22T05:43:41.108Z,13.23
2022-08-22T05:44:41.097Z,13.21
2022-08-22T05:45:41.090Z,13.23
2022-08-22T05:46:41.093Z,13.26
2022-08-22T05:47:41.065Z,13.29
2022-08-22T05:48:41.095Z,13.39
2022-08-22T05:49:41.077Z,13.42
2022-08-22T05:50:41.053Z,13.46
2022-08-22T05:51:41.033Z,13.51
2022-08-22T05:52:41.035Z,13.54
2022-08-22T05:53:41.156Z,13.55
2022-08-22T05:54:41.040Z,13.58
2022-08-22T05:55:41.013Z,13.64
2022-08-22T05:56:41.008Z,13.72
2022-08-22T05:57:40.996Z,13.88
2022-08-22T05:58:41.004Z,13.97
2022-08-22T05:59:41.007Z,13.96
2022-08-22T06:00:40.994Z,14.04
2022-08-22T06:01:41.039Z,13.98
2022-08-22T06:02:40.996Z,14.22
2022-08-22T06:03:40.956Z,14.23
2022-08-22T06:04:40.988Z,14.19
2022-08-22T06:05:40.964Z,14.37
2022-08-22T06:06:40.972Z,14.41
2022-08-22T06:07:40.950Z,14.45
2022-08-22T06:08:40.936Z,14.48
2022-08-22T06:09:40.939Z,14.63
2022-08-22T06:10:40.943Z,14.58
2022-08-22T06:11:40.924Z,14.61
2022-08-22T06:12:43.101Z,14.71
2022-08-22T06:13:41.457Z,14.64
2022-08-22T06:14:40.929Z,14.79
2022-08-22T06:15:40.941Z,14.86
2022-08-22T06:16:40.902Z,14.86
2022-08-22T06:17:40.892Z,14.79
2022-08-22T06:18:40.908Z,14.85
2022-08-22T06:19:40.871Z,14.95
2022-08-22T06:20:42.081Z,14.92
2022-08-22T06:21:40.894Z,15.05
2022-08-22T06:22:40.861Z,15.08
2022-08-22T06:23:40.861Z,15.19
2022-08-22T06:24:40.861Z,15.30
2022-08-22T06:25:40.845Z,15.44
2022-08-22T06:26:40.882Z,15.58
2022-08-22T06:27:40.848Z,15.63
2022-08-22T06:28:46.693Z,15.84
2022-08-22T06:29:40.833Z,16.14
2022-08-22T06:30:40.833Z,16.25
2022-08-22T06:31:40.840Z,16.29
2022-08-22T06:32:59.368Z,16.51
2022-08-22T06:33:43.300Z,16.80
2022-08-22T06:34:41.813Z,16.95
2022-08-22T06:35:40.777Z,16.92
2022-08-22T06:36:40.776Z,16.73
2022-08-22T06:37:40.804Z,16.83
2022-08-22T06:38:40.763Z,16.76
2022-08-22T06:39:40.798Z,16.82
2022-08-22T06:40:40.770Z,16.84
2022-08-22T06:41:40.745Z,17.01
2022-08-22T06:42:40.858Z,16.97
2022-08-22T06:43:40.738Z,16.99
2022-08-22T06:44:40.738Z,17.13
2022-08-22T06:45:40.743Z,17.49
2022-08-22T06:46:40.725Z,18.11
2022-08-22T06:47:40.712Z,19.13
2022-08-22T06:48:40.750Z,19.90
2022-08-22T06:49:40.718Z,20.86
2022-08-22T06:50:40.744Z,21.55
2022-08-22T06:51:40.709Z,22.19
2022-08-22T06:52:40.694Z,22.89
2022-08-22T06:53:47.953Z,23.33
2022-08-22T06:54:41.686Z,23.85
2022-08-22T06:55:40.672Z,24.34
2022-08-22T06:56:40.666Z,24.71
2022-08-22T06:57:40.665Z,25.00
2022-08-22T06:58:40.688Z,25.22
2022-08-22T06:59:40.781Z,25.51
2022-08-22T07:00:40.664Z,25.71
2022-08-22T07:01:40.705Z,25.63
2022-08-22T07:02:40.653Z,25.66
2022-08-22T07:03:40.640Z,25.78
2022-08-22T07:04:40.732Z,25.83
2022-08-22T07:05:40.630Z,25.81
2022-08-22T07:06:40.623Z,25.86
2022-08-22T07:07:40.616Z,25.92
2022-08-22T07:08:40.602Z,25.92
2022-08-22T07:09:40.597Z,26.08
2022-08-22T07:10:40.615Z,26.43
2022-08-22T07:11:40.594Z,26.90
2022-08-22T07:12:40.602Z,27.07
2022-08-22T07:13:40.576Z,27.22
2022-08-22T07:14:41.279Z,27.30
2022-08-22T07:15:40.670Z,27.42
2022-08-22T07:16:40.565Z,27.42
2022-08-22T07:17:40.760Z,27.50
2022-08-22T07:18:41.552Z,27.76
2022-08-22T07:19:40.563Z,28.12
2022-08-22T07:20:40.537Z,28.38
2022-08-22T07:21:40.581Z,28.49
2022-08-22T07:22:40.553Z,28.71
2022-08-22T07:23:40.553Z,29.06
2022-08-22T07:24:40.542Z,29.19
2022-08-22T07:25:40.514Z,29.15
2022-08-22T07:26:40.556Z,29.21
2022-08-22T07:27:40.505Z,29.07
2022-08-22T07:28:51.316Z,29.29
2022-08-22T07:29:41.536Z,29.06
2022-08-22T07:30:40.509Z,28.93
2022-08-22T07:31:40.473Z,29.15
2022-08-22T07:32:40.504Z,29.47
2022-08-22T07:33:40.464Z,29.81
2022-08-22T07:34:40.483Z,29.78
2022-08-22T07:35:40.473Z,29.92
2022-08-22T07:36:40.470Z,29.74
2022-08-22T07:37:40.527Z,29.17
2022-08-22T07:38:40.465Z,28.72
2022-08-22T07:39:41.465Z,29.19
2022-08-22T07:40:40.458Z,29.58
2022-08-22T07:41:40.458Z,29.80
2022-08-22T07:42:40.459Z,29.39
2022-08-22T07:43:40.438Z,29.25
2022-08-22T07:44:40.445Z,29.49
2022-08-22T07:45:40.443Z,30.02
2022-08-22T07:46:40.427Z,30.33
2022-08-22T07:47:41.426Z,30.65
2022-08-22T07:48:59.315Z,30.32
2022-08-22T07:49:45.910Z,29.78
2022-08-22T07:50:40.390Z,29.65
2022-08-22T07:51:40.390Z,29.58
2022-08-22T07:52:40.382Z,29.73
2022-08-22T07:53:40.373Z,29.91
2022-08-22T07:54:40.410Z,30.59
2022-08-22T07:55:42.213Z,30.93
2022-08-22T07:56:40.361Z,31.24
2022-08-22T07:57:40.359Z,31.42
2022-08-22T07:58:40.340Z,31.26
2022-08-22T07:59:40.349Z,31.34
2022-08-22T08:00:40.341Z,31.74
2022-08-22T08:01:40.377Z,32.05
2022-08-22T08:02:40.338Z,32.14
2022-08-22T08:03:40.336Z,32.39
2022-08-22T08:04:40.760Z,32.57
2022-08-22T08:05:41.435Z,32.72
2022-08-22T08:06:40.290Z,32.83
2022-08-22T08:07:40.327Z,32.51
2022-08-22T08:08:40.314Z,32.53
2022-08-22T08:09:40.299Z,32.39
2022-08-22T08:10:40.296Z,32.58
2022-08-22T08:11:40.316Z,32.54
2022-08-22T08:12:40.284Z,32.77
2022-08-22T08:13:40.299Z,32.68
2022-08-22T08:14:40.281Z,32.72
2022-08-22T08:15:40.273Z,32.13
2022-08-22T08:16:40.287Z,32.11
2022-08-22T08:17:40.270Z,32.36
2022-08-22T08:18:40.237Z,32.63
2022-08-22T08:19:40.255Z,32.51
2022-08-22T08:20:40.241Z,32.05
2022-08-22T08:21:40.243Z,31.89
2022-08-22T08:22:40.255Z,32.20
2022-08-22T08:23:40.235Z,32.17
2022-08-22T08:24:41.522Z,32.42
2022-08-22T08:25:40.287Z,32.90
2022-08-22T08:26:40.213Z,32.90
2022-08-22T08:27:40.245Z,32.98
2022-08-22T08:28:40.205Z,32.76
2022-08-22T08:29:40.201Z,32.45
2022-08-22T08:30:40.210Z,32.43
2022-08-22T08:31:43.286Z,32.80
2022-08-22T08:32:40.182Z,32.04
2022-08-22T08:33:40.312Z,32.64
2022-08-22T08:34:40.165Z,33.32
2022-08-22T08:36:01.828Z,33.42
2022-08-22T08:36:41.185Z,33.74
2022-08-22T08:37:40.164Z,33.85
2022-08-22T08:38:40.160Z,34.37
2022-08-22T08:39:40.229Z,34.35
2022-08-22T08:40:40.149Z,34.47
2022-08-22T08:41:40.160Z,34.37
2022-08-22T08:42:40.130Z,34.60
2022-08-22T08:43:40.142Z,34.78
2022-08-22T08:44:40.245Z,34.16
2022-08-22T08:45:40.149Z,34.28
2022-08-22T08:46:40.138Z,34.42
2022-08-22T08:47:40.124Z,34.50
2022-08-22T08:48:40.130Z,34.59
2022-08-22T08:49:42.175Z,34.80
2022-08-22T08:50:40.108Z,34.52
2022-08-22T08:51:40.117Z,34.40
2022-08-22T08:52:40.121Z,34.19
2022-08-22T08:53:41.205Z,33.14
2022-08-22T08:54:40.109Z,32.76
2022-08-22T08:55:40.131Z,32.94
2022-08-22T08:56:40.095Z,32.45
2022-08-22T08:57:40.095Z,32.06
2022-08-22T08:58:40.078Z,31.49
2022-08-22T08:59:40.454Z,31.57
2022-08-22T09:00:40.087Z,32.45
2022-08-22T09:01:40.100Z,32.65
2022-08-22T09:02:42.455Z,33.45
2022-08-22T09:03:40.208Z,33.67
2022-08-22T09:04:40.043Z,33.55
2022-08-22T09:05:40.049Z,33.44
2022-08-22T09:06:42.521Z,33.10
2022-08-22T09:07:40.038Z,32.55
2022-08-22T09:08:40.030Z,32.63
2022-08-22T09:09:40.038Z,32.72
2022-08-22T09:10:40.038Z,32.97
2022-08-22T09:11:40.048Z,33.49
2022-08-22T09:12:52.228Z,33.44
2022-08-22T09:13:41.084Z,32.63
2022-08-22T09:14:40.007Z,32.24
2022-08-22T09:15:39.996Z,31.95
2022-08-22T09:16:46.302Z,31.60
2022-08-22T09:17:40.122Z,31.60
2022-08-22T09:18:39.988Z,31.33
2022-08-22T09:19:39.987Z,31.76
2022-08-22T09:20:39.989Z,31.71
2022-08-22T09:21:39.985Z,31.51
2022-08-22T09:22:50.020Z,31.52
2022-08-22T09:23:40.970Z,31.34
2022-08-22T09:24:39.967Z,31.59
2022-08-22T09:25:40.562Z,31.90
2022-08-22T09:26:39.977Z,31.86
2022-08-22T09:27:39.956Z,31.45
2022-08-22T09:28:40.064Z,31.34
2022-08-22T09:29:54.818Z,31.38
2022-08-22T09:30:39.951Z,31.24
2022-08-22T09:32:40.910Z,31.37
2022-08-22T09:33:40.046Z,31.22
2022-08-22T09:34:39.942Z,31.24
2022-08-22T09:35:39.907Z,30.75
2022-08-22T09:36:39.916Z,30.35
2022-08-22T09:37:39.906Z,30.36
2022-08-22T09:38:39.898Z,30.74
2022-08-22T09:39:40.993Z,30.40
2022-08-22T09:40:39.906Z,30.73
2022-08-22T09:41:39.915Z,31.26
2022-08-22T09:42:39.880Z,32.14
2022-08-22T09:43:45.046Z,32.53
2022-08-22T09:44:40.122Z,32.63
2022-08-22T09:45:39.874Z,33.19
2022-08-22T09:46:39.864Z,33.55
2022-08-22T09:47:40.868Z,33.62
2022-08-22T09:48:39.863Z,33.33
2022-08-22T09:49:39.837Z,31.27
2022-08-22T09:50:39.949Z,30.77
2022-08-22T09:51:39.844Z,31.15
2022-08-22T09:52:40.857Z,31.32
2022-08-22T09:53:39.842Z,31.91
2022-08-22T09:54:39.839Z,31.74
2022-08-22T09:55:39.880Z,31.90
2022-08-22T09:56:39.819Z,32.08
2022-08-22T09:57:39.807Z,32.08
2022-08-22T09:58:41.797Z,31.82
2022-08-22T09:59:39.803Z,31.94
2022-08-22T10:00:40.103Z,31.44
2022-08-22T10:02:15.329Z,31.27
2022-08-22T10:02:43.656Z,30.86
2022-08-22T10:03:39.773Z,30.99
2022-08-22T10:04:39.790Z,31.30
2022-08-22T10:05:43.567Z,31.74
2022-08-22T10:06:39.771Z,31.89
2022-08-22T10:07:39.812Z,31.60
2022-08-22T10:08:39.766Z,31.27
2022-08-22T10:09:39.745Z,31.22
2022-08-22T10:10:39.738Z,30.65
2022-08-22T10:11:42.162Z,30.64
2022-08-22T10:12:39.779Z,31.11
2022-08-22T10:13:40.731Z,31.19
2022-08-22T10:14:39.734Z,31.33
2022-08-22T10:15:39.730Z,31.70
2022-08-22T10:16:39.696Z,31.78
2022-08-22T10:17:40.986Z,31.61
2022-08-22T10:18:43.974Z,31.42
2022-08-22T10:19:40.704Z,30.93
2022-08-22T10:20:39.707Z,30.78
2022-08-22T10:21:40.699Z,30.36
2022-08-22T10:22:39.686Z,30.07
2022-08-22T10:23:39.811Z,30.14
2022-08-22T10:24:43.549Z,29.83
2022-08-22T10:25:41.785Z,29.58
2022-08-22T10:26:39.685Z,29.40
2022-08-22T10:27:39.670Z,28.86
2022-08-22T10:28:39.667Z,27.97
2022-08-22T10:29:39.676Z,28.42
2022-08-22T10:30:39.636Z,28.77
2022-08-22T10:31:58.657Z,29.27
2022-08-22T10:32:40.626Z,29.59
2022-08-22T10:33:39.725Z,29.44
2022-08-22T10:34:39.734Z,29.29
2022-08-22T10:35:39.637Z,29.24
2022-08-22T10:36:39.619Z,29.10
2022-08-22T10:37:39.708Z,29.03
2022-08-22T10:38:46.202Z,28.79
2022-08-22T10:39:40.638Z,28.65
2022-08-22T10:40:39.608Z,28.64
2022-08-22T10:41:39.603Z,28.49
2022-08-22T10:42:39.607Z,28.40
2022-08-22T10:43:40.919Z,28.32
2022-08-22T10:44:39.572Z,28.34
2022-08-22T10:45:39.692Z,28.79
2022-08-22T10:46:39.559Z,28.91
2022-08-22T10:47:39.570Z,28.86
2022-08-22T10:48:39.548Z,29.12
2022-08-22T10:49:39.553Z,29.25
2022-08-22T10:50:39.558Z,29.31
2022-08-22T10:51:39.530Z,29.66
2022-08-22T10:52:39.548Z,29.96
2022-08-22T10:53:39.550Z,30.21
2022-08-22T10:54:39.531Z,29.95
2022-08-22T10:55:39.533Z,29.96
2022-08-22T10:56:40.600Z,30.08
2022-08-22T10:57:39.508Z,30.13
2022-08-22T10:58:39.521Z,30.18
2022-08-22T10:59:39.521Z,30.36
2022-08-22T11:00:46.225Z,30.11
2022-08-22T11:01:42.117Z,30.02
2022-08-22T11:02:39.495Z,30.00
2022-08-22T11:03:39.485Z,30.08
2022-08-22T11:04:39.475Z,30.00
2022-08-22T11:05:39.500Z,29.59
2022-08-22T11:06:39.479Z,29.17
2022-08-22T11:07:39.572Z,28.54
2022-08-22T11:08:39.457Z,28.25
2022-08-22T11:09:39.439Z,28.46
2022-08-22T11:10:39.435Z,28.52
2022-08-22T11:11:39.498Z,28.16
2022-08-22T11:12:41.811Z,28.46
2022-08-22T11:13:39.459Z,28.62
2022-08-22T11:14:39.424Z,28.42
2022-08-22T11:15:39.423Z,28.72
2022-08-22T11:16:41.784Z,28.91
2022-08-22T11:17:42.620Z,29.10
2022-08-22T11:18:40.461Z,29.36
2022-08-22T11:19:39.409Z,29.37
2022-08-22T11:20:39.401Z,29.46
2022-08-22T11:21:39.375Z,29.71
2022-08-22T11:22:39.366Z,29.91
2022-08-22T11:23:40.410Z,29.98
2022-08-22T11:24:55.251Z,29.17
2022-08-22T11:25:39.391Z,28.79
2022-08-22T11:26:47.004Z,28.49
2022-08-22T11:27:41.373Z,28.71
2022-08-22T11:28:39.388Z,28.89
2022-08-22T11:29:39.356Z,29.22
2022-08-22T11:30:44.270Z,29.80
2022-08-22T11:31:47.344Z,29.93
2022-08-22T11:32:39.341Z,29.80
2022-08-22T11:33:47.382Z,29.93
2022-08-22T11:34:40.343Z,29.95
2022-08-22T11:35:39.335Z,29.91
2022-08-22T11:36:39.317Z,29.89
2022-08-22T11:37:43.519Z,29.52
2022-08-22T11:38:39.324Z,29.52
2022-08-22T11:39:39.364Z,29.58
2022-08-22T11:40:39.294Z,29.43
2022-08-22T11:41:39.280Z,29.33
2022-08-22T11:42:47.514Z,29.56
2022-08-22T11:43:40.443Z,29.70
2022-08-22T11:44:50.758Z,29.89
2022-08-22T11:45:39.274Z,29.77
2022-08-22T11:46:40.028Z,29.41
2022-08-22T11:47:39.251Z,28.83
2022-08-22T11:48:39.239Z,28.79
2022-08-22T11:49:39.279Z,28.75
2022-08-22T11:50:39.228Z,28.66
2022-08-22T11:51:39.227Z,28.53
2022-08-22T11:52:39.223Z,28.46
2022-08-22T11:53:39.229Z,28.75
2022-08-22T11:54:39.266Z,28.74
2022-08-22T11:55:39.221Z,28.46
2022-08-22T11:56:40.178Z,28.64
2022-08-22T11:57:39.179Z,28.90
2022-08-22T11:58:39.200Z,29.25
2022-08-22T11:59:40.003Z,29.37
2022-08-22T12:00:39.293Z,29.63
2022-08-22T12:01:39.204Z,29.36
2022-08-22T12:02:39.211Z,29.17
2022-08-22T12:03:39.166Z,29.21
2022-08-22T12:04:39.158Z,29.36
2022-08-22T12:05:39.276Z,29.40
2022-08-22T12:06:39.134Z,29.49
2022-08-22T12:07:39.145Z,29.76
2022-08-22T12:08:39.154Z,30.10
2022-08-22T12:09:39.158Z,30.45
2022-08-22T12:10:39.128Z,30.58
2022-08-22T12:11:39.248Z,30.85
2022-08-22T12:12:39.127Z,30.64
2022-08-22T12:13:39.110Z,30.68
2022-08-22T12:14:39.115Z,30.52
2022-08-22T12:15:40.385Z,30.26
2022-08-22T12:16:39.125Z,30.17
2022-08-22T12:17:55.339Z,30.11
2022-08-22T12:18:39.081Z,29.70
2022-08-22T12:19:48.893Z,29.62
2022-08-22T12:20:41.091Z,29.47
2022-08-22T12:21:39.088Z,29.25
2022-08-22T12:22:39.064Z,29.04
2022-08-22T12:23:49.492Z,28.75
2022-08-22T12:24:40.099Z,28.90
2022-08-22T12:25:39.068Z,29.17
2022-08-22T12:26:39.043Z,29.61
2022-08-22T12:27:39.065Z,30.02
2022-08-22T12:28:40.044Z,30.37
2022-08-22T12:29:44.643Z,30.30
2022-08-22T12:30:39.030Z,30.22
2022-08-22T12:31:39.022Z,30.52
2022-08-22T12:32:39.010Z,30.26
2022-08-22T12:33:39.132Z,29.83
2022-08-22T12:34:38.998Z,29.52
2022-08-22T12:35:39.004Z,29.58
2022-08-22T12:36:39.003Z,30.00
2022-08-22T12:37:52.098Z,30.32
2022-08-22T12:38:40.006Z,30.77
2022-08-22T12:39:41.136Z,30.78
2022-08-22T12:40:38.987Z,30.80
2022-08-22T12:41:38.972Z,30.70
2022-08-22T12:42:38.946Z,30.58
2022-08-22T12:43:42.309Z,30.30
2022-08-22T12:44:38.984Z,30.46
2022-08-22T12:45:40.386Z,30.40
2022-08-22T12:46:38.933Z,30.10
2022-08-22T12:47:42.355Z,29.98